createdAt,value
2022-07-25T00:01:21.362Z,101151.38
2022-07-25T00:03:49.373Z,101149.69
2022-07-25T00:06:18.882Z,101143.38
2022-07-25T00:08:46.966Z,101145.63
2022-07-25T00:11:14.956Z,101146.44
2022-07-25T00:13:42.884Z,101144.25
2022-07-25T00:16:11.276Z,101135.75
2022-07-25T00:18:39.430Z,101132.00
2022-07-25T00:21:07.638Z,101136.75
2022-07-25T00:23:37.214Z,101135.06
2022-07-25T00:26:05.388Z,101133.34
2022-07-25T00:28:33.623Z,101134.03
2022-07-25T00:31:01.773Z,101127.41
2022-07-25T00:33:29.710Z,101130.13
2022-07-25T00:35:57.667Z,101128.78
2022-07-25T00:38:25.823Z,101133.19
2022-07-25T00:40:55.920Z,101122.78
2022-07-25T00:43:23.957Z,101130.44
2022-07-25T00:45:52.238Z,101131.13
2022-07-25T00:48:21.034Z,101126.19
2022-07-25T00:50:49.428Z,101124.50
2022-07-25T00:53:17.894Z,101127.41
2022-07-25T00:55:47.305Z,101123.13
2022-07-25T00:58:16.669Z,101122.78
2022-07-25T01:00:44.789Z,101116.66
2022-07-25T01:03:12.885Z,101119.56
2022-07-25T01:05:41.187Z,101111.56
2022-07-25T01:08:10.406Z,101105.94
2022-07-25T01:10:39.415Z,101106.13
2022-07-25T01:13:07.411Z,101107.81
2022-07-25T01:15:36.960Z,101113.59
2022-07-25T01:18:07.691Z,101101.66
2022-07-25T01:20:37.332Z,101097.06
2022-07-25T01:23:05.475Z,101098.59
2022-07-25T01:25:33.495Z,101102.34
2022-07-25T01:28:01.514Z,101104.38
2022-07-25T01:30:29.512Z,101102.50
2022-07-25T01:32:57.434Z,101088.31
2022-07-25T01:35:25.523Z,101090.22
2022-07-25T01:37:54.767Z,101099.72
2022-07-25T01:40:23.611Z,101099.88
2022-07-25T01:42:51.639Z,101096.13
2022-07-25T01:45:19.760Z,101089.00
2022-07-25T01:47:47.709Z,101078.97
2022-07-25T01:50:15.810Z,101080.81
2022-07-25T01:52:44.241Z,101082.84
2022-07-25T01:55:14.075Z,101077.41
2022-07-25T01:57:49.505Z,101073.47
2022-07-25T02:00:18.732Z,101076.72
2022-07-25T02:02:47.058Z,101069.56
2022-07-25T02:05:16.295Z,101070.25
2022-07-25T02:07:44.299Z,101067.19
2022-07-25T02:10:13.650Z,101061.03
2022-07-25T02:12:41.582Z,101065.63
2022-07-25T02:15:10.648Z,101059.66
2022-07-25T02:17:39.298Z,101049.66
2022-07-25T02:20:08.312Z,101048.63
2022-07-25T02:22:36.356Z,101049.59
2022-07-25T02:25:04.495Z,101039.94
2022-07-25T02:27:33.840Z,101032.63
2022-07-25T02:30:01.765Z,101029.22
2022-07-25T02:32:29.645Z,101033.13
2022-07-25T02:34:58.463Z,101024.97
2022-07-25T02:37:26.580Z,101019.19
2022-07-25T02:39:54.516Z,101022.44
2022-07-25T02:42:22.466Z,101018.03
2022-07-25T02:44:51.892Z,101014.44
2022-07-25T02:47:19.916Z,101010.34
2022-07-25T02:49:47.814Z,101004.91
2022-07-25T02:52:15.780Z,101009.66
2022-07-25T02:54:43.832Z,101010.88
2022-07-25T02:57:11.749Z,101002.31
2022-07-25T02:59:39.844Z,101002.53
2022-07-25T03:02:09.262Z,100999.47
2022-07-25T03:04:37.233Z,101001.84
2022-07-25T03:07:05.359Z,101002.72
2022-07-25T03:09:33.426Z,100994.03
2022-07-25T03:12:01.397Z,100989.59
2022-07-25T03:14:29.492Z,100991.69
2022-07-25T03:16:57.667Z,100990.81
2022-07-25T03:19:27.436Z,100978.75
2022-07-25T03:21:55.508Z,100980.59
2022-07-25T03:24:23.589Z,100973.13
2022-07-25T03:26:51.613Z,100972.81
2022-07-25T03:29:19.746Z,100967.22
2022-07-25T03:31:47.811Z,100966.19
2022-07-25T03:34:15.906Z,100962.13
2022-07-25T03:36:45.358Z,100953.81
2022-07-25T03:39:14.459Z,100953.50
2022-07-25T03:41:42.544Z,100947.88
2022-07-25T03:44:10.672Z,100949.56
2022-07-25T03:46:38.782Z,100948.19
2022-07-25T03:49:06.829Z,100947.34
2022-07-25T03:51:34.967Z,100944.44
2022-07-25T03:54:05.444Z,100938.72
2022-07-25T03:56:38.370Z,100939.69
2022-07-25T03:59:13.490Z,100938.34
2022-07-25T04:01:42.524Z,100932.41
2022-07-25T04:04:11.016Z,100929.34
2022-07-25T04:06:39.783Z,100936.84
2022-07-25T04:09:11.008Z,100921.91
2022-07-25T04:11:39.059Z,100923.25
2022-07-25T04:14:08.171Z,100919.38
2022-07-25T04:16:36.944Z,100916.78
2022-07-25T04:19:06.212Z,100909.50
2022-07-25T04:21:34.454Z,100905.94
2022-07-25T04:24:02.576Z,100908.66
2022-07-25T04:26:31.986Z,100898.63
2022-07-25T04:29:03.208Z,100886.22
2022-07-25T04:31:31.272Z,100884.72
2022-07-25T04:34:00.039Z,100887.78
2022-07-25T04:36:28.326Z,100877.41
2022-07-25T04:38:56.263Z,100881.53
2022-07-25T04:41:24.169Z,100875.22
2022-07-25T04:43:53.623Z,100872.34
2022-07-25T04:46:23.171Z,100868.41
2022-07-25T04:48:52.222Z,100862.47
2022-07-25T04:51:20.505Z,100862.28
2022-07-25T04:53:48.544Z,100849.53
2022-07-25T04:56:16.614Z,100850.69
2022-07-25T04:58:44.710Z,100848.84
2022-07-25T05:01:14.100Z,100844.88
2022-07-25T05:03:50.127Z,100841.28
2022-07-25T05:06:18.957Z,100844.69
2022-07-25T05:08:46.972Z,100836.03
2022-07-25T05:11:15.004Z,100844.50
2022-07-25T05:13:43.162Z,100842.13
2022-07-25T05:16:11.243Z,100834.31
2022-07-25T05:18:40.572Z,100829.53
2022-07-25T05:21:11.745Z,100816.91
2022-07-25T05:23:39.678Z,100820.19
2022-07-25T05:26:07.680Z,100816.59
2022-07-25T05:28:35.841Z,100811.47
2022-07-25T05:31:03.862Z,100810.28
2022-07-25T05:33:31.890Z,100819.63
2022-07-25T05:36:01.409Z,100814.66
2022-07-25T05:38:30.044Z,100807.09
2022-07-25T05:40:58.276Z,100809.13
2022-07-25T05:43:26.234Z,100801.81
2022-07-25T05:45:54.267Z,100803.28
2022-07-25T05:48:22.299Z,100789.97
2022-07-25T05:50:50.303Z,100786.06
2022-07-25T05:53:19.604Z,100791.44
2022-07-25T05:55:47.648Z,100784.53
2022-07-25T05:58:16.088Z,100785.69
2022-07-25T06:00:44.362Z,100781.63
2022-07-25T06:03:12.411Z,100789.44
2022-07-25T06:05:40.745Z,100793.97
2022-07-25T06:08:08.653Z,100780.16
2022-07-25T06:10:37.939Z,100774.91
2022-07-25T06:13:06.022Z,100772.69
2022-07-25T06:15:36.071Z,100768.03
2022-07-25T06:18:04.213Z,100772.06
2022-07-25T06:20:32.622Z,100764.47
2022-07-25T06:23:00.903Z,100756.78
2022-07-25T06:25:28.870Z,100756.13
2022-07-25T06:27:58.469Z,100750.69
2022-07-25T06:30:26.453Z,100752.94
2022-07-25T06:32:54.377Z,100748.84
2022-07-25T06:35:23.309Z,100743.22
2022-07-25T06:37:51.350Z,100742.16
2022-07-25T06:40:19.405Z,100741.59
2022-07-25T06:42:48.890Z,100744.53
2022-07-25T06:45:18.220Z,100739.63
2022-07-25T06:47:46.788Z,100736.59
2022-07-25T06:50:16.733Z,100722.81
2022-07-25T06:52:44.694Z,100729.63
2022-07-25T06:55:15.192Z,100730.06
2022-07-25T06:57:43.495Z,100727.19
2022-07-25T07:00:13.675Z,100719.31
2022-07-25T07:02:58.265Z,100722.19
2022-07-25T07:05:27.413Z,100715.34
2022-07-25T07:07:55.531Z,100719.47
2022-07-25T07:10:23.961Z,100719.00
2022-07-25T07:12:52.800Z,100719.34
2022-07-25T07:15:20.754Z,100713.16
2022-07-25T07:17:48.690Z,100712.47
2022-07-25T07:20:18.012Z,100700.41
2022-07-25T07:22:46.566Z,100692.56
2022-07-25T07:25:15.484Z,100696.78
2022-07-25T07:27:43.722Z,100699.34
2022-07-25T07:30:14.835Z,100700.63
2022-07-25T07:32:43.772Z,100688.03
2022-07-25T07:35:12.412Z,100688.25
2022-07-25T07:37:43.807Z,100681.16
2022-07-25T07:40:17.196Z,100682.34
2022-07-25T07:42:48.196Z,100682.69
2022-07-25T07:45:18.043Z,100677.78
2022-07-25T07:47:48.107Z,100671.22
2022-07-25T07:50:17.424Z,100661.25
2022-07-25T07:52:47.593Z,100665.03
2022-07-25T07:55:33.195Z,100660.19
2022-07-25T07:58:01.685Z,100660.50
2022-07-25T08:00:31.105Z,100647.81
2022-07-25T08:03:00.259Z,100656.06
2022-07-25T08:05:30.080Z,100644.22
2022-07-25T08:08:01.249Z,100640.94
2022-07-25T08:10:31.377Z,100641.16
2022-07-25T08:13:00.302Z,100638.22
2022-07-25T08:15:28.471Z,100636.53
2022-07-25T08:17:56.684Z,100628.81
2022-07-25T08:20:40.124Z,100630.94
2022-07-25T08:23:11.383Z,100629.50
2022-07-25T08:25:39.860Z,100631.13
2022-07-25T08:28:07.961Z,100624.91
2022-07-25T08:30:37.662Z,100621.50
2022-07-25T08:33:07.323Z,100620.13
2022-07-25T08:35:36.375Z,100622.91
2022-07-25T08:38:05.966Z,100615.38
2022-07-25T08:40:36.263Z,100606.47
2022-07-25T08:43:05.789Z,100611.19
2022-07-25T08:45:34.741Z,100609.84
2022-07-25T08:48:02.818Z,100601.56
2022-07-25T08:50:31.396Z,100598.56
2022-07-25T08:53:30.356Z,100592.59
2022-07-25T08:55:49.320Z,100587.22
2022-07-25T08:58:18.437Z,100579.03
2022-07-25T09:00:47.064Z,100582.66
2022-07-25T09:03:15.125Z,100575.72
2022-07-25T09:05:44.122Z,100578.25
2022-07-25T09:08:14.153Z,100574.88
2022-07-25T09:10:47.581Z,100569.44
2022-07-25T09:13:17.835Z,100566.38
2022-07-25T09:15:48.449Z,100562.59
2022-07-25T09:18:19.228Z,100569.47
2022-07-25T09:20:48.728Z,100567.66
2022-07-25T09:23:28.525Z,100561.22
2022-07-25T09:26:03.664Z,100568.22
2022-07-25T09:28:33.612Z,100560.38
2022-07-25T09:31:02.721Z,100559.50
2022-07-25T09:33:30.814Z,100555.13
2022-07-25T09:35:59.105Z,100553.56
2022-07-25T09:38:27.132Z,100545.09
2022-07-25T09:40:56.706Z,100536.50
2022-07-25T09:43:24.806Z,100537.16
2022-07-25T09:45:54.269Z,100542.56
2022-07-25T09:48:22.243Z,100541.63
2022-07-25T09:50:51.557Z,100542.59
2022-07-25T09:53:21.163Z,100536.81
2022-07-25T09:55:49.154Z,100532.16
2022-07-25T09:58:17.095Z,100526.94
2022-07-25T10:00:46.247Z,100528.56
2022-07-25T10:03:21.460Z,100526.97
2022-07-25T10:06:00.813Z,100524.19
2022-07-25T10:08:29.432Z,100517.72
2022-07-25T10:10:58.063Z,100523.84
2022-07-25T10:13:34.328Z,100525.44
2022-07-25T10:16:02.962Z,100519.66
2022-07-25T10:18:34.601Z,100516.72
2022-07-25T10:21:24.874Z,100525.34
2022-07-25T10:24:05.552Z,100522.28
2022-07-25T10:26:34.520Z,100522.22
2022-07-25T10:29:02.837Z,100519.00
2022-07-25T10:31:37.859Z,100508.09
2022-07-25T10:34:08.775Z,100506.19
2022-07-25T10:36:44.512Z,100509.16
2022-07-25T10:39:14.646Z,100500.50
2022-07-25T10:41:44.376Z,100496.94
2022-07-25T10:44:14.741Z,100499.59
2022-07-25T10:46:45.198Z,100499.81
2022-07-25T10:49:23.623Z,100488.53
2022-07-25T10:51:58.788Z,100502.72
2022-07-25T10:54:27.039Z,100495.03
2022-07-25T10:56:57.401Z,100489.53
2022-07-25T10:59:31.261Z,100486.47
2022-07-25T11:01:59.703Z,100484.59
2022-07-25T11:04:30.617Z,100485.16
2022-07-25T11:06:58.662Z,100489.88
2022-07-25T11:09:28.523Z,100481.75
2022-07-25T11:11:58.497Z,100484.28
2022-07-25T11:14:31.236Z,100480.56
2022-07-25T11:16:59.391Z,100485.50
2022-07-25T11:19:30.304Z,100485.59
2022-07-25T11:22:00.734Z,100486.19
2022-07-25T11:24:36.903Z,100482.25
2022-07-25T11:27:09.843Z,100480.75
2022-07-25T11:29:40.820Z,100480.53
2022-07-25T11:32:10.843Z,100484.53
2022-07-25T11:34:43.730Z,100475.06
2022-07-25T11:37:14.497Z,100477.59
2022-07-25T11:39:45.000Z,100481.09
2022-07-25T11:42:16.817Z,100472.34
2022-07-25T11:44:48.079Z,100462.94
2022-07-25T11:47:28.119Z,100459.69
2022-07-25T11:49:59.517Z,100453.38
2022-07-25T11:52:30.218Z,100454.88
2022-07-25T11:55:00.013Z,100443.88
2022-07-25T11:57:29.013Z,100437.06
2022-07-25T11:59:57.823Z,100442.81
2022-07-25T12:02:27.383Z,100429.81
2022-07-25T12:04:58.754Z,100431.25
2022-07-25T12:07:38.142Z,100430.53
2022-07-25T12:10:07.589Z,100422.63
2022-07-25T12:12:46.768Z,100429.28
2022-07-25T12:15:15.239Z,100411.81
2022-07-25T12:17:44.169Z,100416.53
2022-07-25T12:20:16.329Z,100410.00
2022-07-25T12:22:44.614Z,100400.78
2022-07-25T12:25:13.576Z,100403.50
2022-07-25T12:27:42.062Z,100398.09
2022-07-25T12:30:11.790Z,100401.56
2022-07-25T12:32:39.890Z,100406.28
2022-07-25T12:35:10.964Z,100396.63
2022-07-25T12:37:41.539Z,100414.84
2022-07-25T12:40:10.911Z,100413.50
2022-07-25T12:42:38.975Z,100416.69
2022-07-25T12:45:08.621Z,100414.06
2022-07-25T12:47:37.036Z,100418.34
2022-07-25T12:50:05.854Z,100417.19
2022-07-25T12:52:34.030Z,100410.34
2022-07-25T12:55:03.654Z,100415.31
2022-07-25T12:57:31.696Z,100409.94
2022-07-25T12:59:59.719Z,100418.63
2022-07-25T13:02:27.874Z,100408.56
2022-07-25T13:04:55.849Z,100414.50
2022-07-25T13:07:23.744Z,100408.09
2022-07-25T13:09:51.910Z,100416.03
2022-07-25T13:12:22.969Z,100418.38
2022-07-25T13:14:50.966Z,100411.06
2022-07-25T13:17:22.400Z,100409.91
2022-07-25T13:19:52.917Z,100417.16
2022-07-25T13:22:20.907Z,100404.31
2022-07-25T13:24:48.779Z,100411.63
2022-07-25T13:27:19.159Z,100416.25
2022-07-25T13:29:54.292Z,100408.53
2022-07-25T13:32:22.932Z,100407.94
2022-07-25T13:34:50.905Z,100402.16
2022-07-25T13:37:19.196Z,100395.13
2022-07-25T13:39:47.165Z,100399.72
2022-07-25T13:42:15.003Z,100394.34
2022-07-25T13:44:43.177Z,100397.88
2022-07-25T13:47:12.609Z,100395.66
2022-07-25T13:49:41.281Z,100392.50
2022-07-25T13:52:09.282Z,100402.25
2022-07-25T13:54:37.513Z,100400.66
2022-07-25T13:57:05.646Z,100401.06
2022-07-25T13:59:33.803Z,100397.63
2022-07-25T14:02:01.895Z,100395.16
2022-07-25T14:04:31.505Z,100399.94
2022-07-25T14:07:00.857Z,100389.22
2022-07-25T14:09:28.783Z,100389.09
2022-07-25T14:11:56.767Z,100377.13
2022-07-25T14:14:24.925Z,100376.97
2022-07-25T14:16:53.140Z,100382.44
2022-07-25T14:19:21.117Z,100384.28
2022-07-25T14:21:50.517Z,100394.50
2022-07-25T14:24:18.371Z,100405.47
2022-07-25T14:26:46.242Z,100402.56
2022-07-25T14:29:14.448Z,100406.25
2022-07-25T14:31:42.489Z,100418.16
2022-07-25T14:34:10.389Z,100434.59
2022-07-25T14:36:38.387Z,100433.44
2022-07-25T14:39:08.641Z,100445.75
2022-07-25T14:41:37.294Z,100450.13
2022-07-25T14:44:05.691Z,100449.66
2022-07-25T14:46:33.904Z,100455.72
2022-07-25T14:49:01.993Z,100458.72
2022-07-25T14:51:30.700Z,100482.06
2022-07-25T14:53:58.617Z,100493.50
2022-07-25T14:56:27.925Z,100487.25
2022-07-25T14:58:56.161Z,100500.81
2022-07-25T15:01:25.441Z,100506.75
2022-07-25T15:03:56.073Z,100515.81
2022-07-25T15:06:28.717Z,100505.25
2022-07-25T15:08:57.261Z,100517.50
2022-07-25T15:11:25.414Z,100522.53
2022-07-25T15:13:54.631Z,100538.66
2022-07-25T15:16:23.350Z,100548.56
2022-07-25T15:19:15.309Z,100525.25
2022-07-25T15:21:40.072Z,100541.31
2022-07-25T15:24:08.385Z,100544.16
2022-07-25T15:26:37.496Z,100561.53
2022-07-25T15:29:10.022Z,100563.41
2022-07-25T15:31:38.677Z,100580.03
2022-07-25T15:34:06.660Z,100577.69
2022-07-25T15:36:34.758Z,100595.47
2022-07-25T15:39:02.656Z,100616.84
2022-07-25T15:41:31.557Z,100613.31
2022-07-25T15:43:59.895Z,100633.09
2022-07-25T15:46:29.263Z,100658.94
2022-07-25T15:48:58.412Z,100661.84
2022-07-25T15:51:26.573Z,100679.69
2022-07-25T15:53:54.540Z,100695.59
2022-07-25T15:56:22.717Z,100707.50
2022-07-25T15:58:50.821Z,100682.38
2022-07-25T16:01:18.999Z,100664.81
2022-07-25T16:03:48.449Z,100667.31
2022-07-25T16:06:20.686Z,100676.16
2022-07-25T16:08:50.116Z,100674.19
2022-07-25T16:11:18.046Z,100676.34
2022-07-25T16:13:46.104Z,100673.16
2022-07-25T16:16:14.771Z,100653.31
2022-07-25T16:18:42.836Z,100639.53
2022-07-25T16:21:12.751Z,100661.09
2022-07-25T16:23:45.319Z,100662.63
2022-07-25T16:26:14.167Z,100676.81
2022-07-25T16:28:42.710Z,100665.94
2022-07-25T16:31:10.724Z,100654.22
2022-07-25T16:33:38.887Z,100631.13
2022-07-25T16:36:07.594Z,100637.22
2022-07-25T16:38:37.019Z,100649.63
2022-07-25T16:41:05.133Z,100654.41
2022-07-25T16:43:33.085Z,100649.09
2022-07-25T16:46:02.178Z,100654.63
2022-07-25T16:48:30.563Z,100649.22
2022-07-25T16:50:58.629Z,100642.69
2022-07-25T16:53:26.591Z,100655.00
2022-07-25T16:55:56.079Z,100650.22
2022-07-25T16:58:23.966Z,100642.97
2022-07-25T17:00:52.502Z,100634.38
2022-07-25T17:03:20.796Z,100628.25
2022-07-25T17:05:51.734Z,100629.81
2022-07-25T17:08:19.841Z,100625.66
2022-07-25T17:10:48.063Z,100631.28
2022-07-25T17:13:17.483Z,100629.75
2022-07-25T17:15:45.742Z,100631.28
2022-07-25T17:18:14.345Z,100640.25
2022-07-25T17:20:42.419Z,100649.84
2022-07-25T17:23:11.078Z,100648.50
2022-07-25T17:25:40.311Z,100647.25
2022-07-25T17:28:08.919Z,100658.03
2022-07-25T17:30:38.237Z,100659.91
2022-07-25T17:33:06.312Z,100649.63
2022-07-25T17:35:34.435Z,100659.84
2022-07-25T17:38:02.462Z,100662.13
2022-07-25T17:40:30.527Z,100664.19
2022-07-25T17:43:00.056Z,100670.50
2022-07-25T17:45:28.033Z,100666.53
2022-07-25T17:47:57.605Z,100676.88
2022-07-25T17:50:29.381Z,100670.44
2022-07-25T17:52:59.633Z,100666.00
2022-07-25T17:55:28.753Z,100668.13
2022-07-25T17:57:59.736Z,100671.69
2022-07-25T18:00:28.456Z,100671.81
2022-07-25T18:02:57.849Z,100672.50
2022-07-25T18:05:26.301Z,100681.69
2022-07-25T18:07:54.370Z,100684.41
2022-07-25T18:10:22.787Z,100699.88
2022-07-25T18:12:51.639Z,100688.63
2022-07-25T18:15:19.560Z,100685.06
2022-07-25T18:17:48.424Z,100685.06
2022-07-25T18:20:18.281Z,100674.22
2022-07-25T18:22:46.812Z,100674.41
2022-07-25T18:25:15.799Z,100666.25
2022-07-25T18:27:45.827Z,100667.94
2022-07-25T18:30:14.817Z,100675.56
2022-07-25T18:32:43.055Z,100672.69
2022-07-25T18:35:12.111Z,100675.59
2022-07-25T18:37:41.538Z,100672.72
2022-07-25T18:40:14.006Z,100686.66
2022-07-25T18:42:42.672Z,100674.91
2022-07-25T18:45:14.933Z,100667.31
2022-07-25T18:47:47.100Z,100673.22
2022-07-25T18:50:15.860Z,100678.53
2022-07-25T18:52:45.435Z,100669.69
2022-07-25T18:55:19.626Z,100677.34
2022-07-25T18:57:47.847Z,100679.03
2022-07-25T19:00:27.431Z,100674.81
2022-07-25T19:02:55.618Z,100683.31
2022-07-25T19:05:24.027Z,100696.34
2022-07-25T19:07:53.865Z,100684.97
2022-07-25T19:10:21.940Z,100692.94
2022-07-25T19:12:54.400Z,100705.03
2022-07-25T19:15:22.677Z,100700.91
2022-07-25T19:17:52.494Z,100705.66
2022-07-25T19:20:20.901Z,100712.44
2022-07-25T19:22:53.782Z,100713.97
2022-07-25T19:25:22.179Z,100711.09
2022-07-25T19:27:56.939Z,100713.44
2022-07-25T19:30:38.423Z,100719.06
2022-07-25T19:33:11.018Z,100728.53
2022-07-25T19:35:46.463Z,100738.56
2022-07-25T19:38:26.481Z,100742.31
2022-07-25T19:40:58.056Z,100756.19
2022-07-25T19:43:29.040Z,100749.44
2022-07-25T19:45:57.869Z,100756.75
2022-07-25T19:48:27.359Z,100757.56
2022-07-25T19:50:55.820Z,100760.97
2022-07-25T19:53:28.610Z,100759.59
2022-07-25T19:56:05.910Z,100767.53
2022-07-25T19:58:43.354Z,100764.84
2022-07-25T20:01:15.786Z,100770.63
2022-07-25T20:03:48.786Z,100778.91
2022-07-25T20:06:22.319Z,100786.06
2022-07-25T20:09:11.106Z,100786.41
2022-07-25T20:12:10.265Z,100786.06
2022-07-25T20:14:43.135Z,100788.09
2022-07-25T20:17:12.314Z,100785.16
2022-07-25T20:19:49.535Z,100789.25
2022-07-25T20:22:25.207Z,100786.84
2022-07-25T20:24:55.125Z,100795.81
2022-07-25T20:27:23.903Z,100791.88
2022-07-25T20:29:53.716Z,100792.22
2022-07-25T20:32:21.998Z,100790.53
2022-07-25T20:34:52.708Z,100791.03
2022-07-25T20:37:20.655Z,100782.19
2022-07-25T20:39:48.667Z,100794.84
2022-07-25T20:42:18.445Z,100795.53
2022-07-25T20:44:46.720Z,100806.66
2022-07-25T20:47:16.134Z,100814.47
2022-07-25T20:49:44.437Z,100812.91
2022-07-25T20:52:12.494Z,100817.13
2022-07-25T20:54:42.264Z,100816.66
2022-07-25T20:57:11.563Z,100817.19
2022-07-25T20:59:41.178Z,100815.31
2022-07-25T21:02:09.455Z,100823.81
2022-07-25T21:04:37.456Z,100821.91
2022-07-25T21:07:05.619Z,100823.94
2022-07-25T21:09:35.181Z,100815.59
2022-07-25T21:12:03.374Z,100826.13
2022-07-25T21:14:31.363Z,100825.66
2022-07-25T21:17:01.070Z,100819.53
2022-07-25T21:19:29.127Z,100815.97
2022-07-25T21:21:57.153Z,100823.41
2022-07-25T21:24:25.390Z,100820.53
2022-07-25T21:26:53.385Z,100825.59
2022-07-25T21:29:21.357Z,100829.47
2022-07-25T21:31:49.598Z,100832.19
2022-07-25T21:34:18.962Z,100835.06
2022-07-25T21:36:48.063Z,100831.97
2022-07-25T21:39:16.064Z,100830.13
2022-07-25T21:41:44.885Z,100826.22
2022-07-25T21:44:14.671Z,100824.00
2022-07-25T21:46:42.668Z,100836.06
2022-07-25T21:49:41.468Z,100831.34
2022-07-25T21:52:13.954Z,100819.47
2022-07-25T21:54:42.337Z,100823.91
2022-07-25T21:57:13.284Z,100822.72
2022-07-25T21:59:42.258Z,100825.13
2022-07-25T22:02:10.203Z,100818.84
2022-07-25T22:04:38.305Z,100820.38
2022-07-25T22:07:06.770Z,100815.09
2022-07-25T22:09:36.225Z,100816.50
2022-07-25T22:12:04.876Z,100821.72
2022-07-25T22:14:32.995Z,100815.06
2022-07-25T22:17:01.180Z,100820.09
2022-07-25T22:19:29.281Z,100815.47
2022-07-25T22:21:57.277Z,100815.72
2022-07-25T22:24:25.240Z,100818.94
2022-07-25T22:26:54.647Z,100817.72
2022-07-25T22:29:23.722Z,100813.00
2022-07-25T22:31:51.682Z,100819.13
2022-07-25T22:34:19.732Z,100816.88
2022-07-25T22:36:47.829Z,100816.88
2022-07-25T22:39:16.751Z,100819.13
2022-07-25T22:41:44.719Z,100822.97
2022-07-25T22:44:14.312Z,100821.13
2022-07-25T22:46:42.316Z,100825.34
2022-07-25T22:49:10.770Z,100826.31
2022-07-25T22:51:39.137Z,100827.44
2022-07-25T22:54:07.421Z,100827.25
2022-07-25T22:56:35.457Z,100834.34
2022-07-25T22:59:03.457Z,100836.53
2022-07-25T23:01:33.311Z,100842.13
2022-07-25T23:04:01.280Z,100836.84
2022-07-25T23:06:29.364Z,100838.72
2022-07-25T23:08:57.443Z,100840.56
2022-07-25T23:11:27.210Z,100839.41
2022-07-25T23:13:55.468Z,100844.13
2022-07-25T23:16:23.452Z,100843.50
2022-07-25T23:18:52.871Z,100845.56
2022-07-25T23:21:21.008Z,100841.84
2022-07-25T23:23:48.978Z,100841.00
2022-07-25T23:26:17.137Z,100842.91
2022-07-25T23:28:45.306Z,100842.59
2022-07-25T23:31:13.324Z,100840.97
2022-07-25T23:33:41.239Z,100842.75
2022-07-25T23:36:11.475Z,100855.16
2022-07-25T23:38:39.530Z,100853.59
2022-07-25T23:41:07.911Z,100849.72
2022-07-25T23:43:54.976Z,100846.16
2022-07-25T23:46:29.261Z,100837.50
2022-07-25T23:48:57.752Z,100851.91
2022-07-25T23:51:27.228Z,100849.72
2022-07-25T23:53:55.200Z,100848.34
2022-07-25T23:56:23.338Z,100849.47
2022-07-25T23:58:51.350Z,100848.22
